createdAt,value
2023-05-03T00:00:13.858Z,19.00
2023-05-03T00:03:17.344Z,17.00
2023-05-03T00:06:21.968Z,18.00
2023-05-03T00:09:26.657Z,16.80
2023-05-03T00:12:29.913Z,18.25
2023-05-03T00:15:33.142Z,18.00
2023-05-03T00:18:36.553Z,18.00
2023-05-03T00:21:40.090Z,17.40
2023-05-03T00:24:44.820Z,16.00
2023-05-03T00:27:48.047Z,18.00
2023-05-03T00:30:51.381Z,17.80
2023-05-03T00:33:54.637Z,18.00
2023-05-03T00:36:57.851Z,19.00
2023-05-03T00:40:02.671Z,19.00
2023-05-03T00:43:06.890Z,19.25
2023-05-03T00:46:17.278Z,21.00
2023-05-03T00:49:21.537Z,17.00
2023-05-03T00:52:25.245Z,20.00
2023-05-03T00:55:32.082Z,19.80
2023-05-03T00:58:36.420Z,17.50
2023-05-03T01:01:39.994Z,21.25
2023-05-03T01:04:43.668Z,19.00
2023-05-03T01:08:02.262Z,19.60
2023-05-03T01:11:13.034Z,19.60
2023-05-03T01:14:24.193Z,21.00
2023-05-03T01:17:30.475Z,19.00
2023-05-03T01:20:36.641Z,21.40
2023-05-03T01:23:44.914Z,21.00
2023-05-03T01:26:49.536Z,21.00
2023-05-03T01:29:53.066Z,23.00
2023-05-03T01:33:04.711Z,22.00
2023-05-03T01:36:14.883Z,22.00
2023-05-03T01:39:22.287Z,19.00
2023-05-03T01:42:28.480Z,20.40
2023-05-03T01:45:32.020Z,21.00
2023-05-03T01:48:35.723Z,20.00
2023-05-03T01:51:39.436Z,22.40
2023-05-03T01:54:43.207Z,23.00
2023-05-03T01:57:47.825Z,19.00
2023-05-03T02:00:51.183Z,22.00
2023-05-03T02:03:54.765Z,22.00
2023-05-03T02:06:58.153Z,22.00
2023-05-03T02:10:01.570Z,22.00
2023-05-03T02:13:06.476Z,21.20
2023-05-03T02:16:10.245Z,23.00
2023-05-03T02:19:13.728Z,23.60
2023-05-03T02:22:17.001Z,25.00
2023-05-03T02:25:20.644Z,26.00
2023-05-03T02:28:25.234Z,21.40
2023-05-03T02:31:28.693Z,20.40
2023-05-03T02:34:34.208Z,16.20
2023-05-03T02:37:37.594Z,23.40
2023-05-03T02:40:45.729Z,22.00
2023-05-03T02:43:50.503Z,25.40
2023-05-03T02:46:55.873Z,22.40
2023-05-03T02:50:00.927Z,20.50
2023-05-03T02:53:07.465Z,24.20
2023-05-03T02:56:11.313Z,23.00
2023-05-03T02:59:16.064Z,26.00
2023-05-03T03:02:19.377Z,24.75
2023-05-03T03:05:23.091Z,24.00
2023-05-03T03:08:27.696Z,27.00
2023-05-03T03:11:35.318Z,24.80
2023-05-03T03:14:40.033Z,26.60
2023-05-03T03:17:43.672Z,26.75
2023-05-03T03:20:47.520Z,23.50
2023-05-03T03:23:51.087Z,23.60
2023-05-03T03:26:55.648Z,27.00
2023-05-03T03:30:01.847Z,24.50
2023-05-03T03:33:08.836Z,26.00
2023-05-03T03:36:16.545Z,26.00
2023-05-03T03:39:22.483Z,28.00
2023-05-03T03:42:25.979Z,28.00
2023-05-03T03:45:31.170Z,27.00
2023-05-03T03:48:35.572Z,26.00
2023-05-03T03:51:38.949Z,26.20
2023-05-03T03:54:42.471Z,30.00
2023-05-03T03:57:46.050Z,27.40
2023-05-03T04:00:52.001Z,31.00
2023-05-03T04:03:59.066Z,25.20
2023-05-03T04:07:02.477Z,29.60
2023-05-03T04:10:06.705Z,27.60
2023-05-03T04:13:11.059Z,27.60
2023-05-03T04:16:17.108Z,27.60
2023-05-03T04:19:22.781Z,30.00
2023-05-03T04:22:26.552Z,30.60
2023-05-03T04:25:31.898Z,30.20
2023-05-03T04:28:41.325Z,28.20
2023-05-03T04:31:46.255Z,27.50
2023-05-03T04:34:53.893Z,27.40
2023-05-03T04:37:59.429Z,30.00
2023-05-03T04:41:04.770Z,26.00
2023-05-03T04:44:08.161Z,27.40
2023-05-03T04:47:13.238Z,27.00
2023-05-03T04:50:17.878Z,30.60
2023-05-03T04:53:25.290Z,32.00
2023-05-03T04:56:37.972Z,28.20
2023-05-03T04:59:48.355Z,29.75
2023-05-03T05:02:53.247Z,26.25
2023-05-03T05:05:56.838Z,29.20
2023-05-03T05:09:00.410Z,29.00
2023-05-03T05:12:04.225Z,30.00
2023-05-03T05:15:13.926Z,29.60
2023-05-03T05:18:19.046Z,30.00
2023-05-03T05:21:24.058Z,26.25
2023-05-03T05:24:27.429Z,27.00
2023-05-03T05:27:30.884Z,29.75
2023-05-03T05:30:36.415Z,29.00
2023-05-03T05:33:41.157Z,30.00
2023-05-03T05:36:44.705Z,27.25
2023-05-03T05:39:48.090Z,27.60
2023-05-03T05:42:53.089Z,27.00
2023-05-03T05:45:58.151Z,29.00
2023-05-03T05:49:02.871Z,30.00
2023-05-03T05:52:07.264Z,31.00
2023-05-03T05:55:13.807Z,28.20
2023-05-03T05:58:17.893Z,30.00
2023-05-03T06:01:27.112Z,30.00
2023-05-03T06:04:32.249Z,24.40
2023-05-03T06:07:35.963Z,24.00
2023-05-03T06:10:40.076Z,24.00
2023-05-03T06:13:43.900Z,22.80
2023-05-03T06:16:50.839Z,24.75
2023-05-03T06:19:55.761Z,20.20
2023-05-03T06:22:59.215Z,24.00
2023-05-03T06:26:02.936Z,24.00
2023-05-03T06:29:06.469Z,23.40
2023-05-03T06:32:10.205Z,23.00
2023-05-03T06:35:16.291Z,23.00
2023-05-03T06:38:19.847Z,21.00
2023-05-03T06:41:23.139Z,22.40
2023-05-03T06:44:26.411Z,21.50
2023-05-03T06:47:29.633Z,23.25
2023-05-03T06:50:35.281Z,18.00
2023-05-03T06:53:38.610Z,20.60
2023-05-03T06:56:41.917Z,21.00
2023-05-03T06:59:45.150Z,22.00
2023-05-03T07:02:49.018Z,21.75
2023-05-03T07:05:53.733Z,19.40
2023-05-03T07:08:57.140Z,19.00
2023-05-03T07:12:01.106Z,17.00
2023-05-03T07:15:04.596Z,16.00
2023-05-03T07:18:09.112Z,15.50
2023-05-03T07:21:13.941Z,14.80
2023-05-03T07:24:17.647Z,17.00
2023-05-03T07:27:20.934Z,17.80
2023-05-03T07:30:24.643Z,14.20
2023-05-03T07:33:28.244Z,14.40
2023-05-03T07:36:33.132Z,14.00
2023-05-03T07:39:36.847Z,13.40
2023-05-03T07:42:40.167Z,15.60
2023-05-03T07:45:43.753Z,14.00
2023-05-03T07:48:47.086Z,15.00
2023-05-03T07:51:52.279Z,16.00
2023-05-03T07:54:55.529Z,15.00
2023-05-03T07:57:59.559Z,14.00
2023-05-03T08:01:03.762Z,15.60
2023-05-03T08:04:08.028Z,17.60
2023-05-03T08:07:13.148Z,15.25
2023-05-03T08:10:16.985Z,15.00
2023-05-03T08:13:22.936Z,14.00
2023-05-03T08:16:26.388Z,14.40
2023-05-03T08:19:29.731Z,16.00
2023-05-03T08:22:35.362Z,18.00
2023-05-03T08:25:38.612Z,17.00
2023-05-03T08:28:41.865Z,13.80
2023-05-03T08:31:45.200Z,15.33
2023-05-03T08:34:48.828Z,16.00
2023-05-03T08:37:53.477Z,19.00
2023-05-03T08:41:00.794Z,18.00
2023-05-03T08:44:05.691Z,16.00
2023-05-03T08:47:09.536Z,17.00
2023-05-03T08:50:14.574Z,16.00
2023-05-03T08:53:19.202Z,16.60
2023-05-03T08:56:30.278Z,16.20
2023-05-03T08:59:33.508Z,17.20
2023-05-03T09:02:39.152Z,19.00
2023-05-03T09:05:44.438Z,19.00
2023-05-03T09:08:49.210Z,19.00
2023-05-03T09:11:52.875Z,17.80
2023-05-03T09:14:56.143Z,18.60
2023-05-03T09:18:17.521Z,17.00
2023-05-03T09:21:21.531Z,18.80
2023-05-03T09:24:26.467Z,18.00
2023-05-03T09:27:29.689Z,17.00
2023-05-03T09:30:33.004Z,18.00
2023-05-03T09:33:36.440Z,19.40
2023-05-03T09:36:48.192Z,19.00
2023-05-03T09:40:07.794Z,18.40
2023-05-03T09:43:13.043Z,15.80
2023-05-03T09:46:16.454Z,16.00
2023-05-03T09:49:19.753Z,17.00
2023-05-03T09:52:23.732Z,18.00
2023-05-03T09:55:29.388Z,16.40
2023-05-03T09:58:35.285Z,16.20
2023-05-03T10:01:39.002Z,16.20
2023-05-03T10:04:52.347Z,18.00
2023-05-03T10:07:59.402Z,21.00
2023-05-03T10:11:06.291Z,17.00
2023-05-03T10:14:09.606Z,17.00
2023-05-03T10:17:17.819Z,16.00
2023-05-03T10:20:28.535Z,16.40
2023-05-03T10:23:31.849Z,14.00
2023-05-03T10:26:36.538Z,17.60
2023-05-03T10:29:50.039Z,15.40
2023-05-03T10:32:53.541Z,16.75
2023-05-03T10:35:57.526Z,16.60
2023-05-03T10:39:01.342Z,16.00
2023-05-03T10:42:09.732Z,15.00
2023-05-03T10:45:23.319Z,15.50
2023-05-03T10:48:26.793Z,15.00
2023-05-03T10:51:37.295Z,12.50
2023-05-03T10:54:40.806Z,15.00
2023-05-03T10:57:48.124Z,13.00
2023-05-03T11:00:52.282Z,16.40
2023-05-03T11:04:04.013Z,16.00
2023-05-03T11:07:07.389Z,14.00
2023-05-03T11:10:18.356Z,15.75
2023-05-03T11:13:22.950Z,12.40
2023-05-03T11:16:27.400Z,12.40
2023-05-03T11:19:31.058Z,12.40
2023-05-03T11:22:34.585Z,14.00
2023-05-03T11:25:38.721Z,12.00
2023-05-03T11:28:44.318Z,14.00
2023-05-03T11:31:47.629Z,12.00
2023-05-03T11:34:51.507Z,15.00
2023-05-03T11:37:55.059Z,14.00
2023-05-03T11:40:58.572Z,13.20
2023-05-03T11:44:14.952Z,16.00
2023-05-03T11:47:20.332Z,15.25
2023-05-03T11:50:45.749Z,15.00
2023-05-03T11:53:49.922Z,17.00
2023-05-03T11:56:58.091Z,14.25
2023-05-03T12:00:14.626Z,16.20
2023-05-03T12:03:20.018Z,17.25
2023-05-03T12:06:24.404Z,19.00
2023-05-03T12:09:28.791Z,18.00
2023-05-03T12:12:35.666Z,16.00
2023-05-03T12:15:43.799Z,19.00
2023-05-03T12:18:50.425Z,16.00
2023-05-03T12:22:13.314Z,17.00
2023-05-03T12:25:20.105Z,17.00
2023-05-03T12:28:24.190Z,16.75
2023-05-03T12:31:29.499Z,19.60
2023-05-03T12:34:35.664Z,17.40
2023-05-03T12:37:43.423Z,17.00
2023-05-03T12:40:47.442Z,16.50
2023-05-03T12:43:52.663Z,16.00
2023-05-03T12:47:00.704Z,16.60
2023-05-03T12:50:06.255Z,16.00
2023-05-03T12:53:10.461Z,18.00
2023-05-03T12:56:14.842Z,16.40
2023-05-03T12:59:39.993Z,17.20
2023-05-03T13:05:49.866Z,17.00
2023-05-03T13:08:53.904Z,15.40
2023-05-03T13:11:57.407Z,18.00
2023-05-03T13:15:03.602Z,15.80
2023-05-03T13:18:09.396Z,16.60
2023-05-03T13:21:12.720Z,19.40
2023-05-03T13:24:16.385Z,18.50
2023-05-03T13:27:19.690Z,19.00
2023-05-03T13:30:23.578Z,16.80
2023-05-03T13:33:28.794Z,19.60
2023-05-03T13:36:33.482Z,19.00
2023-05-03T13:39:36.708Z,18.00
2023-05-03T13:42:39.918Z,20.20
2023-05-03T13:45:43.474Z,19.00
2023-05-03T13:48:48.300Z,19.40
2023-05-03T13:51:51.585Z,20.80
2023-05-03T13:54:54.818Z,23.00
2023-05-03T13:57:58.080Z,21.00
2023-05-03T14:01:01.336Z,20.00
2023-05-03T14:04:06.668Z,20.40
2023-05-03T14:07:09.967Z,20.40
2023-05-03T14:10:13.994Z,22.00
2023-05-03T14:13:17.308Z,20.40
2023-05-03T14:16:35.668Z,20.00
2023-05-03T14:19:44.329Z,21.00
2023-05-03T14:22:47.617Z,21.00
2023-05-03T14:25:50.918Z,18.00
2023-05-03T14:28:54.235Z,18.00
2023-05-03T14:31:57.933Z,17.00
2023-05-03T14:35:02.897Z,16.50
2023-05-03T14:38:06.517Z,17.40
2023-05-03T14:41:10.176Z,16.40
2023-05-03T14:44:13.451Z,17.00
2023-05-03T14:47:17.016Z,17.25
2023-05-03T14:50:21.729Z,17.40
2023-05-03T14:53:25.009Z,19.40
2023-05-03T14:56:28.494Z,17.00
2023-05-03T14:59:32.953Z,20.00
2023-05-03T15:02:36.386Z,19.50
2023-05-03T15:05:48.851Z,19.25
2023-05-03T15:08:52.557Z,18.00
2023-05-03T15:11:55.809Z,21.00
2023-05-03T15:14:59.427Z,19.40
2023-05-03T15:18:03.273Z,19.20
2023-05-03T15:21:08.099Z,20.60
2023-05-03T15:24:11.368Z,16.25
2023-05-03T15:27:14.666Z,18.00
2023-05-03T15:30:18.917Z,22.60
2023-05-03T15:33:22.140Z,18.50
2023-05-03T15:36:27.242Z,18.75
2023-05-03T15:39:30.510Z,16.00
2023-05-03T15:42:33.722Z,19.80
2023-05-03T15:45:37.314Z,19.80
2023-05-03T15:48:41.256Z,18.50
2023-05-03T15:51:45.887Z,19.60
2023-05-03T15:54:49.169Z,21.00
2023-05-03T15:57:53.375Z,19.00
2023-05-03T16:00:57.103Z,19.00
2023-05-03T16:04:00.392Z,20.00
2023-05-03T16:07:05.368Z,21.00
2023-05-03T16:10:10.178Z,21.60
2023-05-03T16:13:13.769Z,20.25
2023-05-03T16:16:17.167Z,23.00
2023-05-03T16:19:21.414Z,21.00
2023-05-03T16:22:27.076Z,19.00
2023-05-03T16:25:30.863Z,19.20
2023-05-03T16:28:34.606Z,22.00
2023-05-03T16:31:38.096Z,21.40
2023-05-03T16:34:41.638Z,23.80
2023-05-03T16:37:46.512Z,23.40
2023-05-03T16:40:49.762Z,22.80
2023-05-03T16:43:53.220Z,22.20
2023-05-03T16:46:56.831Z,23.60
2023-05-03T16:50:00.375Z,21.00
2023-05-03T16:53:05.072Z,24.00
2023-05-03T16:56:08.404Z,23.00
2023-05-03T16:59:11.831Z,23.00
2023-05-03T17:02:15.085Z,24.20
2023-05-03T17:05:20.300Z,23.00
2023-05-03T17:08:24.911Z,26.20
2023-05-03T17:11:28.104Z,25.60
2023-05-03T17:14:31.398Z,24.60
2023-05-03T17:17:34.687Z,24.00
2023-05-03T17:20:39.502Z,26.00
2023-05-03T17:23:44.172Z,25.20
2023-05-03T17:26:47.412Z,25.40
2023-05-03T17:29:50.725Z,25.60
2023-05-03T17:32:54.572Z,24.40
2023-05-03T17:35:57.860Z,24.60
2023-05-03T17:39:02.727Z,26.00
2023-05-03T17:42:06.240Z,26.00
2023-05-03T17:45:11.161Z,23.20
2023-05-03T17:48:14.786Z,27.00
2023-05-03T17:51:18.307Z,27.00
2023-05-03T17:54:22.921Z,27.40
2023-05-03T17:57:26.639Z,26.00
2023-05-03T18:00:29.971Z,26.00
2023-05-03T18:03:34.183Z,23.20
2023-05-03T18:06:37.668Z,23.60
2023-05-03T18:09:42.353Z,22.40
2023-05-03T18:12:45.691Z,25.50
2023-05-03T18:15:49.073Z,27.00
2023-05-03T18:18:53.036Z,23.00
2023-05-03T18:21:56.500Z,26.40
2023-05-03T18:25:02.400Z,25.60
2023-05-03T18:28:05.992Z,26.00
2023-05-03T18:31:11.234Z,25.00
2023-05-03T18:34:14.566Z,25.80
2023-05-03T18:37:17.866Z,29.00
2023-05-03T18:40:22.653Z,28.00
2023-05-03T18:43:26.319Z,25.20
2023-05-03T18:46:29.543Z,25.00
2023-05-03T18:49:33.016Z,26.67
2023-05-03T18:52:36.482Z,25.00
2023-05-03T18:55:41.695Z,25.00
2023-05-03T18:58:44.880Z,27.25
2023-05-03T19:01:48.168Z,27.00
2023-05-03T19:04:51.614Z,28.80
2023-05-03T19:07:55.085Z,29.00
2023-05-03T19:11:08.221Z,30.50
2023-05-03T19:14:12.022Z,29.50
2023-05-03T19:17:15.307Z,28.00
2023-05-03T19:20:18.609Z,27.00
2023-05-03T19:23:22.099Z,29.00
2023-05-03T19:26:26.880Z,29.00
2023-05-03T19:29:30.300Z,30.00
2023-05-03T19:32:35.382Z,30.00
2023-05-03T19:35:43.311Z,29.00
2023-05-03T19:38:55.602Z,27.00
2023-05-03T19:42:01.411Z,27.00
2023-05-03T19:45:05.034Z,29.25
2023-05-03T19:48:10.440Z,28.60
2023-05-03T19:51:17.806Z,27.60
2023-05-03T19:54:22.085Z,28.75
2023-05-03T19:57:26.795Z,29.00
2023-05-03T20:00:30.038Z,29.00
2023-05-03T20:03:33.333Z,30.00
2023-05-03T20:06:37.220Z,30.00
2023-05-03T20:09:40.734Z,25.00
2023-05-03T20:12:45.525Z,30.00
2023-05-03T20:15:49.206Z,30.00
2023-05-03T20:18:52.515Z,27.80
2023-05-03T20:21:55.857Z,28.80
2023-05-03T20:24:59.148Z,29.00
2023-05-03T20:28:03.835Z,24.00
2023-05-03T20:31:07.083Z,27.80
2023-05-03T20:34:10.422Z,26.80
2023-05-03T20:37:14.223Z,26.20
2023-05-03T20:40:17.651Z,29.00
2023-05-03T20:43:22.520Z,27.00
2023-05-03T20:46:25.889Z,26.60
2023-05-03T20:49:30.152Z,28.00
2023-05-03T20:52:34.220Z,24.00
2023-05-03T20:55:38.659Z,29.00
2023-05-03T20:58:43.396Z,25.67
2023-05-03T21:01:46.897Z,28.50
2023-05-03T21:04:50.153Z,27.60
2023-05-03T21:07:53.412Z,27.00
2023-05-03T21:10:56.911Z,29.00
2023-05-03T21:14:02.187Z,27.00
2023-05-03T21:17:06.439Z,30.00
2023-05-03T21:20:10.860Z,29.50
2023-05-03T21:23:14.225Z,29.00
2023-05-03T21:26:17.481Z,29.00
2023-05-03T21:29:22.263Z,30.00
2023-05-03T21:32:25.526Z,28.80
2023-05-03T21:35:28.840Z,26.20
2023-05-03T21:38:32.735Z,27.80
2023-05-03T21:41:35.954Z,29.50
2023-05-03T21:44:40.828Z,29.50
2023-05-03T21:47:44.163Z,32.25
2023-05-03T21:50:47.646Z,30.00
2023-05-03T21:53:50.851Z,27.50
2023-05-03T21:56:54.335Z,27.50
2023-05-03T21:59:59.386Z,28.00
2023-05-03T22:03:03.089Z,30.00
2023-05-03T22:06:08.058Z,28.00
2023-05-03T22:09:11.917Z,30.00
2023-05-03T22:12:23.538Z,27.00
2023-05-03T22:15:32.346Z,31.00
2023-05-03T22:18:36.305Z,30.00
2023-05-03T22:21:39.605Z,28.40
2023-05-03T22:24:42.870Z,28.80
2023-05-03T22:27:46.602Z,27.25
2023-05-03T22:30:51.481Z,29.00
2023-05-03T22:33:54.744Z,26.20
2023-05-03T22:36:57.984Z,29.20
2023-05-03T22:40:01.660Z,29.00
2023-05-03T22:43:05.675Z,29.50
2023-05-03T22:46:10.312Z,27.60
2023-05-03T22:49:13.783Z,25.60
2023-05-03T22:52:17.168Z,27.40
2023-05-03T22:55:20.847Z,29.00
2023-05-03T22:58:24.443Z,28.00
2023-05-03T23:01:29.371Z,29.20
2023-05-03T23:04:32.941Z,27.20
2023-05-03T23:07:36.673Z,26.25
2023-05-03T23:10:40.005Z,29.40
2023-05-03T23:13:43.362Z,25.00
2023-05-03T23:16:48.035Z,27.00
2023-05-03T23:19:51.431Z,29.00
2023-05-03T23:22:55.083Z,28.00
2023-05-03T23:25:58.295Z,29.00
2023-05-03T23:29:02.282Z,29.20
2023-05-03T23:32:08.529Z,29.00
2023-05-03T23:35:12.150Z,28.00
2023-05-03T23:38:15.562Z,29.00
2023-05-03T23:41:18.941Z,27.75
2023-05-03T23:44:22.312Z,29.00
2023-05-03T23:47:27.086Z,23.50
2023-05-03T23:50:30.468Z,28.00
2023-05-03T23:53:33.716Z,26.00
2023-05-03T23:56:37.012Z,29.00
2023-05-03T23:59:40.198Z,31.20
